createdAt,value
2018-03-25T00:01:38.502Z,6.4
2018-03-25T00:07:05.826Z,6.4
2018-03-25T00:12:34.151Z,6.3
2018-03-25T00:18:01.473Z,6.2
2018-03-25T00:23:28.783Z,6.2
2018-03-25T00:23:30.886Z,6.2
2018-03-25T00:28:56.081Z,6.2
2018-03-25T00:34:23.396Z,6.2
2018-03-25T00:39:51.712Z,6.2
2018-03-25T00:45:19.994Z,6.2
2018-03-25T00:50:47.305Z,6.2
2018-03-25T00:56:15.762Z,6.2
2018-03-25T01:01:42.930Z,6.2
2018-03-25T01:07:11.212Z,6.2
2018-03-25T01:12:38.553Z,6.2
2018-03-25T01:18:05.865Z,6.1
2018-03-25T01:23:33.121Z,6.1
2018-03-25T01:29:00.441Z,6
2018-03-25T01:34:28.691Z,6
2018-03-25T01:39:55.974Z,5.9
2018-03-25T01:45:24.244Z,6
2018-03-25T01:50:51.514Z,5.9
2018-03-25T01:56:19.806Z,5.9
2018-03-25T02:01:48.095Z,5.9
2018-03-25T02:07:15.343Z,5.9
2018-03-25T02:12:43.685Z,6
2018-03-25T02:18:11.927Z,5.9
2018-03-25T02:23:39.196Z,5.9
2018-03-25T02:29:06.461Z,5.9
2018-03-25T02:34:33.719Z,5.9
2018-03-25T02:40:01.011Z,5.9
2018-03-25T02:45:29.317Z,5.8
2018-03-25T02:50:56.547Z,5.8
2018-03-25T02:56:24.897Z,5.8
2018-03-25T03:01:52.275Z,5.8
2018-03-25T03:07:19.434Z,5.7
2018-03-25T03:12:47.648Z,5.7
2018-03-25T03:18:15.930Z,5.7
2018-03-25T03:23:43.172Z,5.6
2018-03-25T03:29:11.467Z,5.6
2018-03-25T03:34:39.684Z,5.7
2018-03-25T03:40:06.954Z,5.8
2018-03-25T03:45:34.227Z,5.8
2018-03-25T03:51:02.450Z,5.8
2018-03-25T03:56:29.722Z,5.9
2018-03-25T04:01:56.980Z,5.8
2018-03-25T04:07:24.391Z,5.8
2018-03-25T04:12:51.542Z,5.7
2018-03-25T04:18:18.766Z,5.6
2018-03-25T04:23:47.004Z,5.6
2018-03-25T04:29:14.233Z,5.6
2018-03-25T04:34:41.489Z,5.5
2018-03-25T04:40:09.701Z,5.5
2018-03-25T04:45:36.941Z,5.5
2018-03-25T04:51:05.184Z,5.6
2018-03-25T04:56:33.444Z,5.6
2018-03-25T05:02:00.716Z,5.6
2018-03-25T05:07:28.000Z,5.5
2018-03-25T05:12:57.035Z,5.5
2018-03-25T05:18:23.443Z,5.5
2018-03-25T05:23:50.698Z,5.5
2018-03-25T05:29:17.936Z,5.5
2018-03-25T05:34:45.143Z,5.6
2018-03-25T05:40:12.407Z,5.5
2018-03-25T05:45:39.675Z,5.6
2018-03-25T05:51:06.910Z,5.5
2018-03-25T05:56:34.137Z,5.5
2018-03-25T06:02:02.370Z,5.5
2018-03-25T06:07:29.600Z,5.6
2018-03-25T06:12:56.883Z,5.6
2018-03-25T06:18:24.085Z,5.6
2018-03-25T06:23:51.339Z,5.6
2018-03-25T06:29:18.585Z,5.6
2018-03-25T06:34:45.849Z,5.7
2018-03-25T06:40:14.285Z,5.8
2018-03-25T06:45:42.317Z,5.8
2018-03-25T06:51:10.592Z,5.9
2018-03-25T06:56:38.848Z,5.9
2018-03-25T07:02:07.125Z,5.9
2018-03-25T07:07:34.419Z,5.9
2018-03-25T07:13:01.698Z,6
2018-03-25T07:18:29.977Z,6.1
2018-03-25T07:23:58.241Z,6.1
2018-03-25T07:29:26.526Z,6.1
2018-03-25T07:34:53.979Z,6.1
2018-03-25T07:40:21.086Z,6.2
2018-03-25T07:45:48.375Z,6.3
2018-03-25T07:51:15.998Z,6.3
2018-03-25T07:56:43.978Z,6.3
2018-03-25T08:02:11.292Z,6.3
2018-03-25T08:02:12.818Z,6.3
2018-03-25T08:07:39.584Z,6.4
2018-03-25T08:13:06.877Z,6.4
2018-03-25T08:18:35.294Z,6.5
2018-03-25T08:24:02.532Z,6.5
2018-03-25T08:29:30.851Z,6.6
2018-03-25T08:34:59.155Z,6.7
2018-03-25T08:40:27.472Z,6.7
2018-03-25T08:45:55.820Z,6.8
2018-03-25T08:51:24.148Z,6.9
2018-03-25T08:56:51.488Z,6.9
2018-03-25T09:02:18.865Z,6.9
2018-03-25T09:07:47.245Z,6.9
2018-03-25T09:13:14.557Z,6.9
2018-03-25T09:18:41.904Z,6.9
2018-03-25T09:24:09.243Z,6.9
2018-03-25T09:29:37.598Z,7
2018-03-25T09:35:04.894Z,6.9
2018-03-25T09:40:32.303Z,6.9
2018-03-25T09:45:59.641Z,6.8
2018-03-25T09:51:27.924Z,6.8
2018-03-25T09:56:55.249Z,6.9
2018-03-25T10:02:22.659Z,6.9
2018-03-25T10:07:49.966Z,7
2018-03-25T10:13:18.368Z,7.1
2018-03-25T10:18:45.648Z,7.1
2018-03-25T10:24:14.021Z,7.1
2018-03-25T10:29:41.371Z,7.2
2018-03-25T10:35:08.855Z,7.2
2018-03-25T10:40:36.104Z,7.2
2018-03-25T10:46:04.499Z,7.3
2018-03-25T10:51:31.869Z,7.3
2018-03-25T10:57:00.310Z,7.2
2018-03-25T11:02:28.616Z,7.3
2018-03-25T11:07:56.990Z,7.3
2018-03-25T11:13:24.405Z,7.3
2018-03-25T11:18:52.786Z,7.3
2018-03-25T11:24:21.189Z,7.4
2018-03-25T11:29:49.545Z,7.4
2018-03-25T11:35:18.105Z,7.4
2018-03-25T11:40:46.300Z,7.5
2018-03-25T11:46:13.700Z,7.6
2018-03-25T11:51:41.394Z,7.7
2018-03-25T11:57:08.545Z,7.7
2018-03-25T12:02:35.922Z,7.8
2018-03-25T12:08:04.340Z,7.8
2018-03-25T12:13:32.125Z,7.8
2018-03-25T12:19:00.202Z,7.9
2018-03-25T12:24:27.624Z,8
2018-03-25T12:29:55.047Z,8
2018-03-25T12:35:22.524Z,8
2018-03-25T12:40:50.921Z,7.9
2018-03-25T12:46:18.330Z,7.9
2018-03-25T12:51:46.757Z,7.9
2018-03-25T12:57:14.190Z,8
2018-03-25T13:02:42.761Z,8.1
2018-03-25T13:08:11.146Z,7.9
2018-03-25T13:13:39.485Z,7.9
2018-03-25T13:19:06.923Z,7.9
2018-03-25T13:24:34.354Z,7.9
2018-03-25T13:30:01.831Z,7.9
2018-03-25T13:35:29.298Z,8
2018-03-25T13:40:57.611Z,8
2018-03-25T13:46:25.051Z,8.1
2018-03-25T13:51:52.495Z,8.1
2018-03-25T13:57:20.918Z,8.1
2018-03-25T14:02:49.347Z,8
2018-03-25T14:08:16.832Z,8
2018-03-25T14:13:44.174Z,8.1
2018-03-25T14:19:12.640Z,8.1
2018-03-25T14:24:41.080Z,8.1
2018-03-25T14:30:09.523Z,8.1
2018-03-25T14:35:37.966Z,8
2018-03-25T14:41:06.393Z,8
2018-03-25T14:46:34.856Z,7.9
2018-03-25T14:52:02.245Z,8
2018-03-25T14:57:29.679Z,8.1
2018-03-25T15:02:57.159Z,8.1
2018-03-25T15:08:24.563Z,8.1
2018-03-25T15:13:52.002Z,8.1
2018-03-25T15:19:20.517Z,8.1
2018-03-25T15:24:47.902Z,8.1
2018-03-25T15:30:15.327Z,8
2018-03-25T15:35:42.740Z,7.9
2018-03-25T15:41:10.267Z,7.8
2018-03-25T15:46:38.640Z,7.8
2018-03-25T15:52:07.004Z,7.8
2018-03-25T15:57:35.477Z,7.8
2018-03-25T16:03:03.854Z,7.7
2018-03-25T16:08:32.290Z,7.7
2018-03-25T16:13:59.688Z,7.6
2018-03-25T16:19:27.204Z,7.6
2018-03-25T16:24:54.469Z,7.6
2018-03-25T16:30:22.872Z,7.5
2018-03-25T16:35:51.245Z,7.5
2018-03-25T16:41:19.710Z,7.4
2018-03-25T16:46:47.019Z,7.3
2018-03-25T16:52:14.384Z,7.2
2018-03-25T16:57:41.731Z,7.1
2018-03-25T17:03:10.087Z,7
2018-03-25T17:08:38.453Z,7
2018-03-25T17:14:05.783Z,7
2018-03-25T17:19:34.220Z,6.9
2018-03-25T17:25:02.503Z,6.8
2018-03-25T17:30:29.777Z,6.7
2018-03-25T17:35:57.240Z,6.7
2018-03-25T17:41:24.442Z,6.6
2018-03-25T17:46:52.742Z,6.5
2018-03-25T17:52:20.065Z,6.5
2018-03-25T17:57:47.386Z,6.5
2018-03-25T18:03:14.668Z,6.4
2018-03-25T18:08:42.066Z,6.4
2018-03-25T18:14:09.387Z,6.3
2018-03-25T18:19:36.626Z,6.3
2018-03-25T18:25:04.853Z,6.3
2018-03-25T18:30:33.178Z,6.3
2018-03-25T18:36:00.447Z,6.3
2018-03-25T18:41:27.735Z,6.3
2018-03-25T18:46:55.055Z,6.2
2018-03-25T18:52:22.319Z,6.2
2018-03-25T18:57:49.580Z,6.2
2018-03-25T19:03:17.914Z,6.2
2018-03-25T19:08:45.166Z,6.1
2018-03-25T19:14:12.429Z,6.1
2018-03-25T19:19:40.904Z,6
2018-03-25T19:25:09.007Z,6
2018-03-25T19:30:37.262Z,5.9
2018-03-25T19:36:05.600Z,5.8
2018-03-25T19:41:33.740Z,5.8
2018-03-25T19:47:02.056Z,5.7
2018-03-25T19:52:29.209Z,5.7
2018-03-25T19:57:56.465Z,5.7
2018-03-25T20:03:23.723Z,5.7
2018-03-25T20:08:50.939Z,5.7
2018-03-25T20:14:18.187Z,5.7
2018-03-25T20:19:45.456Z,5.6
2018-03-25T20:25:12.668Z,5.6
2018-03-25T20:30:39.871Z,5.5
2018-03-25T20:36:07.115Z,5.4
2018-03-25T20:41:34.306Z,5.3
2018-03-25T20:47:01.756Z,5.3
2018-03-25T20:52:28.708Z,5.2
2018-03-25T20:57:56.951Z,5.2
2018-03-25T21:03:24.074Z,5.1
2018-03-25T21:08:51.272Z,4.9
2018-03-25T21:14:19.458Z,4.9
2018-03-25T21:19:46.600Z,4.8
2018-03-25T21:25:13.783Z,4.8
2018-03-25T21:30:40.974Z,4.9
2018-03-25T21:36:09.145Z,4.8
2018-03-25T21:41:37.272Z,4.7
2018-03-25T21:47:05.682Z,4.6
2018-03-25T21:52:32.570Z,4.6
2018-03-25T21:58:00.783Z,4.5
2018-03-25T22:03:27.909Z,4.3
2018-03-25T22:08:56.000Z,4.1
2018-03-25T22:14:23.087Z,4
2018-03-25T22:19:51.210Z,4
2018-03-25T22:25:19.314Z,3.9
2018-03-25T22:30:47.372Z,3.8
2018-03-25T22:36:15.526Z,3.8
2018-03-25T22:41:42.570Z,3.8
2018-03-25T22:47:10.807Z,3.7
2018-03-25T22:52:37.716Z,3.7
2018-03-25T22:58:04.848Z,3.7
2018-03-25T23:03:31.904Z,3.7
2018-03-25T23:08:59.953Z,3.6
2018-03-25T23:14:27.002Z,3.5
2018-03-25T23:19:54.046Z,3.3
2018-03-25T23:25:22.082Z,3.3
2018-03-25T23:30:50.149Z,3.2
2018-03-25T23:36:18.262Z,3.3
2018-03-25T23:41:45.221Z,3.4
2018-03-25T23:47:12.250Z,3.4
2018-03-25T23:52:39.337Z,3.4
2018-03-25T23:58:06.397Z,3.3
